sensor_id;sensor_type;location;lat;lon;timestamp;pressure;altitude;pressure_sealevel;temperature;humidity
21111;BME280;10713;51.912;4.494;2023-03-03T00:02:16;102533.00;;;4.50;100.00
21111;BME280;10713;51.912;4.494;2023-03-03T00:04:42;102532.06;;;4.48;100.00
21111;BME280;10713;51.912;4.494;2023-03-03T00:07:07;102529.38;;;4.42;100.00
21111;BME280;10713;51.912;4.494;2023-03-03T00:09:32;102532.84;;;4.39;100.00
21111;BME280;10713;51.912;4.494;2023-03-03T00:11:59;102525.03;;;4.41;100.00
21111;BME280;10713;51.912;4.494;2023-03-03T00:14:30;102529.38;;;4.43;100.00
21111;BME280;10713;51.912;4.494;2023-03-03T00:16:59;102532.03;;;4.45;100.00
21111;BME280;10713;51.912;4.494;2023-03-03T00:19:25;102526.75;;;4.39;100.00
21111;BME280;10713;51.912;4.494;2023-03-03T00:21:57;102530.25;;;4.41;100.00
21111;BME280;10713;51.912;4.494;2023-03-03T00:24:24;102535.41;;;4.38;100.00
21111;BME280;10713;51.912;4.494;2023-03-03T00:26:56;102531.94;;;4.36;100.00
21111;BME280;10713;51.912;4.494;2023-03-03T00:29:36;102537.16;;;4.37;100.00
21111;BME280;10713;51.912;4.494;2023-03-03T00:34:39;102529.25;;;4.31;100.00
21111;BME280;10713;51.912;4.494;2023-03-03T00:39:46;102543.09;;;4.25;100.00
21111;BME280;10713;51.912;4.494;2023-03-03T00:42:13;102549.19;;;4.26;100.00
21111;BME280;10713;51.912;4.494;2023-03-03T00:44:40;102546.53;;;4.23;100.00
21111;BME280;10713;51.912;4.494;2023-03-03T00:47:28;102539.56;;;4.22;100.00
21111;BME280;10713;51.912;4.494;2023-03-03T00:52:38;102539.53;;;4.19;100.00
21111;BME280;10713;51.912;4.494;2023-03-03T00:55:05;102538.63;;;4.15;100.00
21111;BME280;10713;51.912;4.494;2023-03-03T00:57:31;102532.53;;;4.16;100.00
21111;BME280;10713;51.912;4.494;2023-03-03T00:59:56;102531.66;;;4.16;100.00
21111;BME280;10713;51.912;4.494;2023-03-03T01:02:22;102539.53;;;4.19;100.00
21111;BME280;10713;51.912;4.494;2023-03-03T01:04:50;102537.81;;;4.21;100.00
21111;BME280;10713;51.912;4.494;2023-03-03T01:07:16;102533.41;;;4.17;100.00
21111;BME280;10713;51.912;4.494;2023-03-03T01:09:42;102535.19;;;4.18;100.00
21111;BME280;10713;51.912;4.494;2023-03-03T01:12:09;102542.16;;;4.19;100.00
21111;BME280;10713;51.912;4.494;2023-03-03T01:14:34;102543.84;;;4.15;100.00
21111;BME280;10713;51.912;4.494;2023-03-03T01:17:00;102532.47;;;4.13;100.00
21111;BME280;10713;51.912;4.494;2023-03-03T01:19:25;102535.88;;;4.07;100.00
21111;BME280;10713;51.912;4.494;2023-03-03T01:21:50;102541.13;;;4.09;100.00
21111;BME280;10713;51.912;4.494;2023-03-03T01:24:16;102538.53;;;4.11;100.00
21111;BME280;10713;51.912;4.494;2023-03-03T01:26:41;102540.19;;;4.04;100.00
21111;BME280;10713;51.912;4.494;2023-03-03T01:29:07;102533.19;;;4.03;100.00
21111;BME280;10713;51.912;4.494;2023-03-03T01:31:32;102533.19;;;4.01;100.00
21111;BME280;10713;51.912;4.494;2023-03-03T01:33:58;102531.50;;;4.05;100.00
21111;BME280;10713;51.912;4.494;2023-03-03T01:36:24;102536.78;;;4.10;100.00
21111;BME280;10713;51.912;4.494;2023-03-03T01:38:50;102537.59;;;4.05;100.00
21111;BME280;10713;51.912;4.494;2023-03-03T01:41:16;102539.41;;;4.10;100.00
21111;BME280;10713;51.912;4.494;2023-03-03T01:43:48;102535.06;;;4.12;100.00
21111;BME280;10713;51.912;4.494;2023-03-03T01:48:48;102540.16;;;4.02;100.00
21111;BME280;10713;51.912;4.494;2023-03-03T01:51:19;102547.13;;;4.02;100.00
21111;BME280;10713;51.912;4.494;2023-03-03T01:53:51;102550.56;;;3.98;100.00
21111;BME280;10713;51.912;4.494;2023-03-03T01:56:17;102543.38;;;3.84;100.00
21111;BME280;10713;51.912;4.494;2023-03-03T01:58:47;102546.03;;;3.89;100.00
21111;BME280;10713;51.912;4.494;2023-03-03T02:01:18;102543.47;;;3.91;100.00
21111;BME280;10713;51.912;4.494;2023-03-03T02:03:44;102543.44;;;3.89;100.00
21111;BME280;10713;51.912;4.494;2023-03-03T02:06:12;102551.34;;;3.94;100.00
21111;BME280;10713;51.912;4.494;2023-03-03T02:08:47;102547.09;;;3.99;100.00
21111;BME280;10713;51.912;4.494;2023-03-03T02:11:15;102540.94;;;3.97;100.00
21111;BME280;10713;51.912;4.494;2023-03-03T02:13:40;102541.91;;;4.02;100.00
21111;BME280;10713;51.912;4.494;2023-03-03T02:16:06;102535.84;;;4.06;100.00
21111;BME280;10713;51.912;4.494;2023-03-03T02:18:32;102535.84;;;4.04;100.00
21111;BME280;10713;51.912;4.494;2023-03-03T02:21:17;102532.41;;;4.09;100.00
21111;BME280;10713;51.912;4.494;2023-03-03T02:26:19;102540.16;;;4.02;100.00
21111;BME280;10713;51.912;4.494;2023-03-03T02:28:47;102533.09;;;3.97;100.00
21111;BME280;10713;51.912;4.494;2023-03-03T02:31:15;102534.88;;;3.99;100.00
21111;BME280;10713;51.912;4.494;2023-03-03T02:33:42;102545.28;;;3.96;100.00
21111;BME280;10713;51.912;4.494;2023-03-03T02:36:33;102532.31;;;4.01;100.00
21111;BME280;10713;51.912;4.494;2023-03-03T02:44:22;102534.88;;;3.99;100.00
21111;BME280;10713;51.912;4.494;2023-03-03T02:46:49;102533.16;;;4.00;100.00
21111;BME280;10713;51.912;4.494;2023-03-03T02:49:18;102527.13;;;4.04;100.00
21111;BME280;10713;51.912;4.494;2023-03-03T02:51:44;102533.97;;;3.97;100.00
21111;BME280;10713;51.912;4.494;2023-03-03T02:54:10;102524.47;;;4.02;100.00
21111;BME280;10713;51.912;4.494;2023-03-03T02:56:36;102521.88;;;4.02;100.00
21111;BME280;10713;51.912;4.494;2023-03-03T02:59:03;102520.16;;;4.04;100.00
21111;BME280;10713;51.912;4.494;2023-03-03T03:01:29;102521.91;;;4.05;100.00
21111;BME280;10713;51.912;4.494;2023-03-03T03:03:56;102524.47;;;4.02;100.00
21111;BME280;10713;51.912;4.494;2023-03-03T03:06:22;102527.91;;;4.00;100.00
21111;BME280;10713;51.912;4.494;2023-03-03T03:08:47;102527.97;;;4.03;100.00
21111;BME280;10713;51.912;4.494;2023-03-03T03:11:12;102524.44;;;3.99;100.00
21111;BME280;10713;51.912;4.494;2023-03-03T03:13:38;102526.22;;;4.02;100.00
21111;BME280;10713;51.912;4.494;2023-03-03T03:16:04;102536.72;;;4.05;100.00
21111;BME280;10713;51.912;4.494;2023-03-03T03:18:29;102538.44;;;4.04;100.00
21111;BME280;10713;51.912;4.494;2023-03-03T03:20:54;102536.72;;;4.03;100.00
21111;BME280;10713;51.912;4.494;2023-03-03T03:23:20;102542.03;;;4.10;100.00
21111;BME280;10713;51.912;4.494;2023-03-03T03:25:48;102541.09;;;4.07;100.00
21111;BME280;10713;51.912;4.494;2023-03-03T03:28:15;102535.06;;;4.10;100.00
21111;BME280;10713;51.912;4.494;2023-03-03T03:30:41;102543.00;;;4.18;100.00
21111;BME280;10713;51.912;4.494;2023-03-03T03:33:08;102543.06;;;4.21;100.00
21111;BME280;10713;51.912;4.494;2023-03-03T03:35:34;102553.56;;;4.24;100.00
21111;BME280;10713;51.912;4.494;2023-03-03T03:38:00;102543.94;;;4.23;100.00
21111;BME280;10713;51.912;4.494;2023-03-03T03:40:25;102548.94;;;4.07;100.00
21111;BME280;10713;51.912;4.494;2023-03-03T03:42:52;102563.75;;;4.09;100.00
21111;BME280;10713;51.912;4.494;2023-03-03T03:45:17;102559.28;;;4.00;100.00
21111;BME280;10713;51.912;4.494;2023-03-03T03:47:43;102557.53;;;3.99;100.00
21111;BME280;10713;51.912;4.494;2023-03-03T03:50:09;102564.56;;;4.03;100.00
21111;BME280;10713;51.912;4.494;2023-03-03T03:52:34;102557.53;;;4.00;100.00
21111;BME280;10713;51.912;4.494;2023-03-03T03:54:59;102560.22;;;4.05;100.00
21111;BME280;10713;51.912;4.494;2023-03-03T03:57:25;102570.47;;;3.91;100.00
21111;BME280;10713;51.912;4.494;2023-03-03T03:59:51;102561.63;;;3.83;100.00
21111;BME280;10713;51.912;4.494;2023-03-03T04:02:16;102558.13;;;3.81;100.00
21111;BME280;10713;51.912;4.494;2023-03-03T04:04:41;102566.94;;;3.88;100.00
21111;BME280;10713;51.912;4.494;2023-03-03T04:07:07;102569.50;;;3.86;100.00
21111;BME280;10713;51.912;4.494;2023-03-03T04:09:32;102571.38;;;3.93;100.00
21111;BME280;10713;51.912;4.494;2023-03-03T04:11:57;102565.22;;;3.90;100.00
21111;BME280;10713;51.912;4.494;2023-03-03T04:14:23;102566.97;;;3.91;100.00
21111;BME280;10713;51.912;4.494;2023-03-03T04:16:48;102569.56;;;3.89;100.00
21111;BME280;10713;51.912;4.494;2023-03-03T04:19:14;102569.41;;;3.78;100.00
21111;BME280;10713;51.912;4.494;2023-03-03T04:21:39;102574.59;;;3.75;100.00
21111;BME280;10713;51.912;4.494;2023-03-03T04:24:05;102566.84;;;3.81;100.00
21111;BME280;10713;51.912;4.494;2023-03-03T04:26:30;102574.84;;;3.92;100.00
21111;BME280;10713;51.912;4.494;2023-03-03T04:28:56;102575.78;;;3.96;100.00
21111;BME280;10713;51.912;4.494;2023-03-03T04:31:22;102581.78;;;3.90;100.00
21111;BME280;10713;51.912;4.494;2023-03-03T04:33:50;102578.13;;;3.80;100.00
21111;BME280;10713;51.912;4.494;2023-03-03T04:36:15;102579.75;;;3.72;100.00
21111;BME280;10713;51.912;4.494;2023-03-03T04:38:40;102582.38;;;3.74;100.00
21111;BME280;10713;51.912;4.494;2023-03-03T04:41:06;102581.63;;;3.81;100.00
21111;BME280;10713;51.912;4.494;2023-03-03T04:43:31;102594.63;;;3.76;100.00
21111;BME280;10713;51.912;4.494;2023-03-03T04:45:56;102591.00;;;3.68;100.00
21111;BME280;10713;51.912;4.494;2023-03-03T04:48:22;102584.94;;;3.69;100.00
21111;BME280;10713;51.912;4.494;2023-03-03T04:50:47;102596.16;;;3.64;100.00
21111;BME280;10713;51.912;4.494;2023-03-03T04:53:13;102594.28;;;3.56;100.00
21111;BME280;10713;51.912;4.494;2023-03-03T04:55:38;102591.81;;;3.64;100.00
21111;BME280;10713;51.912;4.494;2023-03-03T04:58:04;102589.25;;;3.67;100.00
21111;BME280;10713;51.912;4.494;2023-03-03T05:00:29;102594.47;;;3.67;100.00
21111;BME280;10713;51.912;4.494;2023-03-03T05:02:54;102592.69;;;3.66;100.00
21111;BME280;10713;51.912;4.494;2023-03-03T05:05:20;102591.03;;;3.70;100.00
21111;BME280;10713;51.912;4.494;2023-03-03T05:07:45;102597.22;;;3.76;100.00
21111;BME280;10713;51.912;4.494;2023-03-03T05:10:11;102599.03;;;3.80;100.00
21111;BME280;10713;51.912;4.494;2023-03-03T05:12:36;102591.22;;;3.82;100.00
21111;BME280;10713;51.912;4.494;2023-03-03T05:15:02;102603.38;;;3.80;100.00
21111;BME280;10713;51.912;4.494;2023-03-03T05:17:28;102598.13;;;3.78;100.00
21111;BME280;10713;51.912;4.494;2023-03-03T05:19:54;102602.41;;;3.73;100.00
21111;BME280;10713;51.912;4.494;2023-03-03T05:22:21;102606.59;;;3.64;100.00
21111;BME280;10713;51.912;4.494;2023-03-03T05:24:47;102596.16;;;3.65;100.00
21111;BME280;10713;51.912;4.494;2023-03-03T05:27:14;102597.09;;;3.69;100.00
21111;BME280;10713;51.912;4.494;2023-03-03T05:29:39;102597.06;;;3.67;100.00
21111;BME280;10713;51.912;4.494;2023-03-03T05:32:04;102602.41;;;3.73;100.00
21111;BME280;10713;51.912;4.494;2023-03-03T05:34:30;102592.69;;;3.66;100.00
21111;BME280;10713;51.912;4.494;2023-03-03T05:36:55;102597.19;;;3.73;100.00
21111;BME280;10713;51.912;4.494;2023-03-03T05:39:20;102596.25;;;3.70;100.00
21111;BME280;10713;51.912;4.494;2023-03-03T05:41:46;102593.78;;;3.79;100.00
21111;BME280;10713;51.912;4.494;2023-03-03T05:44:11;102597.50;;;3.93;100.00
21111;BME280;10713;51.912;4.494;2023-03-03T05:46:37;102588.84;;;3.96;100.00
21111;BME280;10713;51.912;4.494;2023-03-03T05:49:02;102594.03;;;3.94;100.00
21111;BME280;10713;51.912;4.494;2023-03-03T05:51:28;102595.69;;;3.89;100.00
21111;BME280;10713;51.912;4.494;2023-03-03T05:53:53;102599.03;;;3.80;100.00
21111;BME280;10713;51.912;4.494;2023-03-03T05:56:18;102597.25;;;3.78;100.00
21111;BME280;10713;51.912;4.494;2023-03-03T05:58:44;102592.75;;;3.69;100.00
21111;BME280;10713;51.912;4.494;2023-03-03T06:01:10;102597.13;;;3.70;100.00
21111;BME280;10713;51.912;4.494;2023-03-03T06:03:35;102602.50;;;3.78;100.00
21111;BME280;10713;51.912;4.494;2023-03-03T06:06:01;102600.81;;;3.83;100.00
21111;BME280;10713;51.912;4.494;2023-03-03T06:08:26;102606.22;;;3.94;100.00
21111;BME280;10713;51.912;4.494;2023-03-03T06:10:52;102608.03;;;3.98;100.00
21111;BME280;10713;51.912;4.494;2023-03-03T06:13:17;102601.03;;;3.97;100.00
21111;BME280;10713;51.912;4.494;2023-03-03T06:15:43;102612.13;;;3.82;100.00
21111;BME280;10713;51.912;4.494;2023-03-03T06:18:08;102612.16;;;3.85;100.00
21111;BME280;10713;51.912;4.494;2023-03-03T06:20:34;102612.41;;;4.00;100.00
21111;BME280;10713;51.912;4.494;2023-03-03T06:23:00;102609.97;;;4.10;100.00
21111;BME280;10713;51.912;4.494;2023-03-03T06:25:25;102614.38;;;4.12;100.00
21111;BME280;10713;51.912;4.494;2023-03-03T06:27:51;102614.50;;;4.21;100.00
21111;BME280;10713;51.912;4.494;2023-03-03T06:30:17;102605.63;;;4.12;100.00
21111;BME280;10713;51.912;4.494;2023-03-03T06:32:43;102617.06;;;4.18;100.00
21111;BME280;10713;51.912;4.494;2023-03-03T06:35:08;102622.13;;;4.07;100.00
21111;BME280;10713;51.912;4.494;2023-03-03T06:37:34;102619.59;;;4.12;100.00
21111;BME280;10713;51.912;4.494;2023-03-03T06:39:59;102621.34;;;4.13;100.00
21111;BME280;10713;51.912;4.494;2023-03-03T06:42:25;102622.09;;;4.04;100.00
21111;BME280;10713;51.912;4.494;2023-03-03T06:44:50;102631.56;;;3.99;100.00
21111;BME280;10713;51.912;4.494;2023-03-03T06:47:15;102625.56;;;4.05;100.00
21111;BME280;10713;51.912;4.494;2023-03-03T06:49:41;102641.19;;;4.02;100.00
21111;BME280;10713;51.912;4.494;2023-03-03T06:52:19;102646.31;;;3.96;100.00
21111;BME280;10713;51.912;4.494;2023-03-03T06:54:46;102645.41;;;3.92;100.00
21111;BME280;10713;51.912;4.494;2023-03-03T06:57:32;102648.28;;;4.09;100.00
21111;BME280;10713;51.912;4.494;2023-03-03T07:06:41;102661.41;;;4.12;100.00
21111;BME280;10713;51.912;4.494;2023-03-03T07:09:24;102662.16;;;4.03;100.00
21111;BME280;10713;51.912;4.494;2023-03-03T07:11:52;102665.44;;;3.93;100.00
21111;BME280;10713;51.912;4.494;2023-03-03T07:14:19;102667.91;;;3.84;100.00
21111;BME280;10713;51.912;4.494;2023-03-03T07:16:46;102667.72;;;3.75;100.00
21111;BME280;10713;51.912;4.494;2023-03-03T07:19:29;102675.66;;;3.79;100.00
21111;BME280;10713;51.912;4.494;2023-03-03T07:21:56;102673.75;;;3.71;100.00
21111;BME280;10713;51.912;4.494;2023-03-03T07:24:27;102676.47;;;3.77;100.00
21111;BME280;10713;51.912;4.494;2023-03-03T07:26:57;102674.78;;;3.79;100.00
21111;BME280;10713;51.912;4.494;2023-03-03T07:29:26;102671.25;;;3.77;100.00
21111;BME280;10713;51.912;4.494;2023-03-03T07:31:54;102672.16;;;3.80;100.00
21111;BME280;10713;51.912;4.494;2023-03-03T07:34:44;102675.63;;;3.78;100.00
21111;BME280;10713;51.912;4.494;2023-03-03T07:37:25;102685.16;;;3.76;100.00
21111;BME280;10713;51.912;4.494;2023-03-03T07:39:53;102679.06;;;3.75;100.00
21111;BME280;10713;51.912;4.494;2023-03-03T07:42:27;102689.72;;;3.88;100.00
21111;BME280;10713;51.912;4.494;2023-03-03T07:44:58;102687.28;;;3.97;100.00
21111;BME280;10713;51.912;4.494;2023-03-03T07:47:35;102683.88;;;4.02;100.00
21111;BME280;10713;51.912;4.494;2023-03-03T07:50:13;102685.72;;;4.06;100.00
21111;BME280;10713;51.912;4.494;2023-03-03T07:52:42;102692.00;;;4.18;100.00
21111;BME280;10713;51.912;4.494;2023-03-03T07:55:24;102692.69;;;4.07;100.00
21111;BME280;10713;51.912;4.494;2023-03-03T07:57:52;102698.03;;;4.14;100.00
21111;BME280;10713;51.912;4.494;2023-03-03T08:03:04;102698.22;;;4.26;100.00
21111;BME280;10713;51.912;4.494;2023-03-03T08:05:50;102695.88;;;4.43;100.00
21111;BME280;10713;51.912;4.494;2023-03-03T08:08:34;102703.06;;;4.56;100.00
21111;BME280;10713;51.912;4.494;2023-03-03T08:11:03;102707.47;;;4.59;100.00
21111;BME280;10713;51.912;4.494;2023-03-03T08:16:17;102712.53;;;4.46;100.00
21111;BME280;10713;51.912;4.494;2023-03-03T08:18:47;102713.56;;;4.59;100.00
21111;BME280;10713;51.912;4.494;2023-03-03T08:21:14;102718.94;;;4.68;100.00
21111;BME280;10713;51.912;4.494;2023-03-03T08:23:41;102719.84;;;4.72;100.00
21111;BME280;10713;51.912;4.494;2023-03-03T08:26:06;102725.16;;;4.75;100.00
21111;BME280;10713;51.912;4.494;2023-03-03T08:28:32;102736.72;;;4.91;100.00
21111;BME280;10713;51.912;4.494;2023-03-03T08:30:57;102727.91;;;4.86;100.00
21111;BME280;10713;51.912;4.494;2023-03-03T08:33:23;102729.03;;;5.03;100.00
21111;BME280;10713;51.912;4.494;2023-03-03T08:35:48;102736.72;;;4.89;100.00
21111;BME280;10713;51.912;4.494;2023-03-03T08:38:16;102736.34;;;4.66;100.00
21111;BME280;10713;51.912;4.494;2023-03-03T08:40:42;102742.38;;;4.61;100.00
21111;BME280;10713;51.912;4.494;2023-03-03T08:43:08;102742.22;;;4.51;100.00
21111;BME280;10713;51.912;4.494;2023-03-03T08:45:34;102746.44;;;4.42;100.00
21111;BME280;10713;51.912;4.494;2023-03-03T08:47:59;102741.16;;;4.39;100.00
21111;BME280;10713;51.912;4.494;2023-03-03T08:50:26;102744.81;;;4.50;100.00
21111;BME280;10713;51.912;4.494;2023-03-03T08:52:52;102741.44;;;4.56;100.00
21111;BME280;10713;51.912;4.494;2023-03-03T08:55:17;102749.38;;;4.63;100.00
21111;BME280;10713;51.912;4.494;2023-03-03T08:57:43;102745.19;;;4.74;100.00
21111;BME280;10713;51.912;4.494;2023-03-03T09:00:11;102743.59;;;4.84;100.00
21111;BME280;10713;51.912;4.494;2023-03-03T09:02:37;102738.50;;;4.95;100.00
21111;BME280;10713;51.912;4.494;2023-03-03T09:05:03;102750.88;;;5.05;100.00
21111;BME280;10713;51.912;4.494;2023-03-03T09:07:29;102748.31;;;5.07;100.00
21111;BME280;10713;51.912;4.494;2023-03-03T09:09:54;102743.06;;;5.07;100.00
21111;BME280;10713;51.912;4.494;2023-03-03T09:12:33;102739.84;;;5.29;100.00
21111;BME280;10713;51.912;4.494;2023-03-03T09:15:10;102735.81;;;5.54;100.00
21111;BME280;10713;51.912;4.494;2023-03-03T09:17:37;102741.28;;;5.74;100.00
21111;BME280;10713;51.912;4.494;2023-03-03T09:20:27;102745.72;;;5.81;100.00
21111;BME280;10713;51.912;4.494;2023-03-03T09:22:54;102736.06;;;5.77;100.00
21111;BME280;10713;51.912;4.494;2023-03-03T09:25:33;102740.72;;;6.03;100.00
21111;BME280;10713;51.912;4.494;2023-03-03T09:28:00;102742.03;;;6.51;100.00
21111;BME280;10713;51.912;4.494;2023-03-03T09:30:34;102738.97;;;7.13;100.00
21111;BME280;10713;51.912;4.494;2023-03-03T09:33:01;102733.97;;;7.95;100.00
21111;BME280;10713;51.912;4.494;2023-03-03T09:35:40;102737.47;;;7.84;100.00
21111;BME280;10713;51.912;4.494;2023-03-03T10:00:07;102735.78;;;8.20;100.00
21111;BME280;10713;51.912;4.494;2023-03-03T10:14:18;102701.69;;;11.14;100.00
21111;BME280;10713;51.912;4.494;2023-03-03T10:22:10;102688.38;;;12.41;100.00
21111;BME280;10713;51.912;4.494;2023-03-03T10:25:06;102689.44;;;12.80;100.00
21111;BME280;10713;51.912;4.494;2023-03-03T10:27:42;102691.13;;;12.35;100.00
21111;BME280;10713;51.912;4.494;2023-03-03T10:30:32;102692.66;;;11.95;100.00
21111;BME280;10713;51.912;4.494;2023-03-03T10:33:18;102697.88;;;11.37;100.00
21111;BME280;10713;51.912;4.494;2023-03-03T10:36:59;102695.16;;;10.66;100.00
21111;BME280;10713;51.912;4.494;2023-03-03T10:39:31;102704.13;;;10.51;100.00
21111;BME280;10713;51.912;4.494;2023-03-03T10:50:13;102695.41;;;11.21;100.00
21111;BME280;10713;51.912;4.494;2023-03-03T11:00:36;102689.09;;;12.51;100.00
21111;BME280;10713;51.912;4.494;2023-03-03T11:06:28;102681.31;;;13.73;100.00
21111;BME280;10713;51.912;4.494;2023-03-03T11:09:07;102681.63;;;13.97;100.00
21111;BME280;10713;51.912;4.494;2023-03-03T11:14:46;102673.47;;;13.27;100.00
21111;BME280;10713;51.912;4.494;2023-03-03T11:17:29;102685.22;;;12.69;100.00
21111;BME280;10713;51.912;4.494;2023-03-03T11:26:24;102684.31;;;10.92;100.00
21111;BME280;10713;51.912;4.494;2023-03-03T11:29:21;102688.94;;;10.70;100.00
21111;BME280;10713;51.912;4.494;2023-03-03T11:34:59;102682.31;;;10.26;100.00
21111;BME280;10713;51.912;4.494;2023-03-03T11:37:34;102678.19;;;9.91;100.00
21111;BME280;10713;51.912;4.494;2023-03-03T11:40:48;102679.13;;;9.81;100.00
21111;BME280;10713;51.912;4.494;2023-03-03T11:43:21;102682.53;;;9.98;100.00
21111;BME280;10713;51.912;4.494;2023-03-03T11:45:54;102678.31;;;9.74;100.00
21111;BME280;10713;51.912;4.494;2023-03-03T11:48:35;102674.94;;;9.47;100.00
21111;BME280;10713;51.912;4.494;2023-03-03T11:51:06;102680.25;;;9.35;100.00
21111;BME280;10713;51.912;4.494;2023-03-03T11:53:49;102674.06;;;9.48;100.00
21111;BME280;10713;51.912;4.494;2023-03-03T11:56:22;102667.00;;;9.54;100.00
21111;BME280;10713;51.912;4.494;2023-03-03T12:02:00;102668.69;;;9.61;100.00
21111;BME280;10713;51.912;4.494;2023-03-03T12:04:36;102665.22;;;9.57;100.00
21111;BME280;10713;51.912;4.494;2023-03-03T12:07:30;102659.13;;;9.47;100.00
21111;BME280;10713;51.912;4.494;2023-03-03T12:15:35;102660.94;;;9.35;100.00
21111;BME280;10713;51.912;4.494;2023-03-03T12:18:22;102653.84;;;9.49;100.00
21111;BME280;10713;51.912;4.494;2023-03-03T12:29:05;102636.94;;;9.82;100.00
21111;BME280;10713;51.912;4.494;2023-03-03T12:31:59;102635.31;;;9.63;100.00
21111;BME280;10713;51.912;4.494;2023-03-03T12:39:54;102630.63;;;10.02;100.00
21111;BME280;10713;51.912;4.494;2023-03-03T12:45:00;102631.47;;;10.05;100.00
21111;BME280;10713;51.912;4.494;2023-03-03T12:47:39;102637.59;;;10.09;100.00
21111;BME280;10713;51.912;4.494;2023-03-03T12:52:42;102629.75;;;9.98;100.00
21111;BME280;10713;51.912;4.494;2023-03-03T12:55:29;102631.44;;;10.07;100.00
21111;BME280;10713;51.912;4.494;2023-03-03T12:58:08;102624.50;;;9.95;100.00
21111;BME280;10713;51.912;4.494;2023-03-03T13:03:31;102635.69;;;10.28;100.00
21111;BME280;10713;51.912;4.494;2023-03-03T13:06:10;102629.50;;;10.32;100.00
21111;BME280;10713;51.912;4.494;2023-03-03T13:11:35;102637.25;;;10.50;100.00
21111;BME280;10713;51.912;4.494;2023-03-03T13:14:27;102627.56;;;10.51;100.00
21111;BME280;10713;51.912;4.494;2023-03-03T13:19:48;102623.00;;;10.64;100.00
21111;BME280;10713;51.912;4.494;2023-03-03T13:22:37;102619.38;;;10.72;100.00
21111;BME280;10713;51.912;4.494;2023-03-03T13:27:50;102613.25;;;10.69;100.00
21111;BME280;10713;51.912;4.494;2023-03-03T13:30:34;102614.91;;;10.77;100.00
21111;BME280;10713;51.912;4.494;2023-03-03T13:38:03;102621.34;;;10.55;100.00
21111;BME280;10713;51.912;4.494;2023-03-03T13:40:56;102617.81;;;10.53;100.00
21111;BME280;10713;51.912;4.494;2023-03-03T13:43:23;102612.75;;;10.34;100.00
21111;BME280;10713;51.912;4.494;2023-03-03T13:51:30;102606.06;;;9.93;100.00
21111;BME280;10713;51.912;4.494;2023-03-03T13:54:08;102606.91;;;9.96;100.00
21111;BME280;10713;51.912;4.494;2023-03-03T14:02:20;102609.91;;;10.53;100.00
21111;BME280;10713;51.912;4.494;2023-03-03T14:04:53;102600.06;;;10.69;100.00
21111;BME280;10713;51.912;4.494;2023-03-03T14:07:37;102602.56;;;10.79;100.00
21111;BME280;10713;51.912;4.494;2023-03-03T14:13:02;102596.09;;;11.05;100.00
21111;BME280;10713;51.912;4.494;2023-03-03T14:15:34;102596.00;;;11.11;100.00
21111;BME280;10713;51.912;4.494;2023-03-03T14:20:42;102604.34;;;10.79;100.00
21111;BME280;10713;51.912;4.494;2023-03-03T14:28:36;102607.94;;;10.73;100.00
21111;BME280;10713;51.912;4.494;2023-03-03T14:31:14;102606.13;;;10.77;100.00
21111;BME280;10713;51.912;4.494;2023-03-03T14:36:30;102598.81;;;10.97;100.00
21111;BME280;10713;51.912;4.494;2023-03-03T14:38:56;102603.25;;;10.95;100.00
21111;BME280;10713;51.912;4.494;2023-03-03T14:41:35;102592.66;;;10.95;100.00
21111;BME280;10713;51.912;4.494;2023-03-03T14:44:28;102598.91;;;10.90;100.00
21111;BME280;10713;51.912;4.494;2023-03-03T14:47:10;102587.34;;;10.98;100.00
21111;BME280;10713;51.912;4.494;2023-03-03T14:49:38;102593.75;;;10.82;100.00
21111;BME280;10713;51.912;4.494;2023-03-03T14:54:41;102596.69;;;10.54;100.00
21111;BME280;10713;51.912;4.494;2023-03-03T15:00:04;102590.09;;;10.10;100.00
21111;BME280;10713;51.912;4.494;2023-03-03T15:03:35;102583.94;;;10.07;100.00
21111;BME280;10713;51.912;4.494;2023-03-03T15:05:50;102580.44;;;10.06;100.00
21111;BME280;10713;51.912;4.494;2023-03-03T15:08:23;102593.56;;;10.14;100.00
21111;BME280;10713;51.912;4.494;2023-03-03T15:10:52;102591.78;;;10.16;100.00
21111;BME280;10713;51.912;4.494;2023-03-03T15:15:56;102587.66;;;9.86;100.00
21111;BME280;10713;51.912;4.494;2023-03-03T15:18:29;102589.41;;;9.85;100.00
21111;BME280;10713;51.912;4.494;2023-03-03T15:21:06;102591.25;;;9.77;100.00
21111;BME280;10713;51.912;4.494;2023-03-03T15:26:19;102579.00;;;9.68;100.00
21111;BME280;10713;51.912;4.494;2023-03-03T15:29:07;102572.00;;;9.61;100.00
21111;BME280;10713;51.912;4.494;2023-03-03T15:42:31;102565.97;;;9.48;100.00
21111;BME280;10713;51.912;4.494;2023-03-03T15:45:26;102571.16;;;9.62;100.00
21111;BME280;10713;51.912;4.494;2023-03-03T16:03:57;102559.75;;;9.57;100.00
21111;BME280;10713;51.912;4.494;2023-03-03T16:06:38;102557.19;;;9.48;100.00
21111;BME280;10713;51.912;4.494;2023-03-03T16:15:17;102568.81;;;9.15;100.00
21111;BME280;10713;51.912;4.494;2023-03-03T16:23:48;102570.50;;;9.28;100.00
21111;BME280;10713;51.912;4.494;2023-03-03T16:32:11;102575.81;;;9.22;100.00
21111;BME280;10713;51.912;4.494;2023-03-03T16:35:14;102569.69;;;9.17;100.00
21111;BME280;10713;51.912;4.494;2023-03-03T16:40:19;102572.44;;;9.01;100.00
21111;BME280;10713;51.912;4.494;2023-03-03T16:45:36;102573.34;;;8.91;100.00
21111;BME280;10713;51.912;4.494;2023-03-03T17:18:29;102606.00;;;8.21;100.00
21111;BME280;10713;51.912;4.494;2023-03-03T17:21:00;102603.38;;;8.24;100.00
21111;BME280;10713;51.912;4.494;2023-03-03T17:23:41;102613.88;;;8.29;100.00
21111;BME280;10713;51.912;4.494;2023-03-03T17:31:51;102620.03;;;8.25;100.00
21111;BME280;10713;51.912;4.494;2023-03-03T17:34:42;102619.13;;;8.23;100.00